sensor_id;sensor_type;location;lat;lon;timestamp;P1;durP1;ratioP1;P2;durP2;ratioP2
34497;SDS011;20744;50.938;7.286;2023-02-08T00:00:19;16.20;;;8.77;;
34497;SDS011;20744;50.938;7.286;2023-02-08T00:02:48;15.73;;;9.00;;
34497;SDS011;20744;50.938;7.286;2023-02-08T00:05:15;18.45;;;9.40;;
34497;SDS011;20744;50.938;7.286;2023-02-08T00:07:42;17.63;;;9.85;;
34497;SDS011;20744;50.938;7.286;2023-02-08T00:10:09;19.98;;;9.45;;
34497;SDS011;20744;50.938;7.286;2023-02-08T00:12:37;27.17;;;11.23;;
34497;SDS011;20744;50.938;7.286;2023-02-08T00:15:04;21.13;;;10.10;;
34497;SDS011;20744;50.938;7.286;2023-02-08T00:17:32;23.55;;;11.52;;
34497;SDS011;20744;50.938;7.286;2023-02-08T00:20:00;26.90;;;12.70;;
34497;SDS011;20744;50.938;7.286;2023-02-08T00:22:27;30.80;;;13.90;;
34497;SDS011;20744;50.938;7.286;2023-02-08T00:24:55;39.47;;;15.48;;
34497;SDS011;20744;50.938;7.286;2023-02-08T00:27:22;37.00;;;14.13;;
34497;SDS011;20744;50.938;7.286;2023-02-08T00:29:49;34.40;;;14.25;;
34497;SDS011;20744;50.938;7.286;2023-02-08T00:32:16;34.40;;;14.85;;
34497;SDS011;20744;50.938;7.286;2023-02-08T00:34:43;26.27;;;12.18;;
34497;SDS011;20744;50.938;7.286;2023-02-08T00:37:12;25.08;;;11.40;;
34497;SDS011;20744;50.938;7.286;2023-02-08T00:39:39;20.08;;;10.50;;
34497;SDS011;20744;50.938;7.286;2023-02-08T00:42:07;21.27;;;10.38;;
34497;SDS011;20744;50.938;7.286;2023-02-08T00:44:34;22.52;;;9.73;;
34497;SDS011;20744;50.938;7.286;2023-02-08T00:47:01;17.38;;;9.65;;
34497;SDS011;20744;50.938;7.286;2023-02-08T00:49:28;17.30;;;9.88;;
34497;SDS011;20744;50.938;7.286;2023-02-08T00:51:55;17.42;;;9.30;;
34497;SDS011;20744;50.938;7.286;2023-02-08T00:54:24;20.33;;;10.32;;
34497;SDS011;20744;50.938;7.286;2023-02-08T00:56:51;19.05;;;10.07;;
34497;SDS011;20744;50.938;7.286;2023-02-08T00:59:18;22.70;;;9.93;;
34497;SDS011;20744;50.938;7.286;2023-02-08T01:01:46;16.63;;;9.75;;
34497;SDS011;20744;50.938;7.286;2023-02-08T01:04:14;18.30;;;9.13;;
34497;SDS011;20744;50.938;7.286;2023-02-08T01:06:41;16.55;;;9.55;;
34497;SDS011;20744;50.938;7.286;2023-02-08T01:09:08;17.05;;;9.98;;
34497;SDS011;20744;50.938;7.286;2023-02-08T01:11:37;20.25;;;10.18;;
34497;SDS011;20744;50.938;7.286;2023-02-08T01:14:04;21.23;;;10.75;;
34497;SDS011;20744;50.938;7.286;2023-02-08T01:16:32;20.33;;;10.50;;
34497;SDS011;20744;50.938;7.286;2023-02-08T01:19:00;24.83;;;11.60;;
34497;SDS011;20744;50.938;7.286;2023-02-08T01:21:28;25.63;;;12.15;;
34497;SDS011;20744;50.938;7.286;2023-02-08T01:23:56;24.42;;;11.93;;
34497;SDS011;20744;50.938;7.286;2023-02-08T01:26:24;18.27;;;10.57;;
34497;SDS011;20744;50.938;7.286;2023-02-08T01:28:53;22.63;;;10.85;;
34497;SDS011;20744;50.938;7.286;2023-02-08T01:31:22;19.95;;;10.63;;
34497;SDS011;20744;50.938;7.286;2023-02-08T01:33:49;21.58;;;10.50;;
34497;SDS011;20744;50.938;7.286;2023-02-08T01:36:16;19.33;;;10.25;;
34497;SDS011;20744;50.938;7.286;2023-02-08T01:38:44;22.10;;;11.15;;
34497;SDS011;20744;50.938;7.286;2023-02-08T01:41:12;21.73;;;11.52;;
34497;SDS011;20744;50.938;7.286;2023-02-08T01:46:27;20.65;;;10.48;;
34497;SDS011;20744;50.938;7.286;2023-02-08T01:48:54;22.80;;;11.50;;
34497;SDS011;20744;50.938;7.286;2023-02-08T01:51:24;22.70;;;11.15;;
34497;SDS011;20744;50.938;7.286;2023-02-08T01:53:52;25.30;;;12.43;;
34497;SDS011;20744;50.938;7.286;2023-02-08T01:56:22;21.92;;;11.52;;
34497;SDS011;20744;50.938;7.286;2023-02-08T01:58:52;19.63;;;10.95;;
34497;SDS011;20744;50.938;7.286;2023-02-08T02:01:20;19.15;;;10.95;;
34497;SDS011;20744;50.938;7.286;2023-02-08T02:03:49;17.05;;;10.68;;
34497;SDS011;20744;50.938;7.286;2023-02-08T02:06:25;21.27;;;10.77;;
34497;SDS011;20744;50.938;7.286;2023-02-08T02:08:55;24.65;;;10.35;;
34497;SDS011;20744;50.938;7.286;2023-02-08T02:11:23;16.75;;;9.18;;
34497;SDS011;20744;50.938;7.286;2023-02-08T02:13:51;17.65;;;8.98;;
34497;SDS011;20744;50.938;7.286;2023-02-08T02:16:18;15.82;;;8.75;;
34497;SDS011;20744;50.938;7.286;2023-02-08T02:18:45;15.05;;;8.48;;
34497;SDS011;20744;50.938;7.286;2023-02-08T02:21:21;16.65;;;8.68;;
34497;SDS011;20744;50.938;7.286;2023-02-08T02:23:55;18.52;;;9.15;;
34497;SDS011;20744;50.938;7.286;2023-02-08T02:26:46;14.82;;;9.05;;
34497;SDS011;20744;50.938;7.286;2023-02-08T02:29:22;16.70;;;9.90;;
34497;SDS011;20744;50.938;7.286;2023-02-08T02:32:09;18.10;;;9.45;;
34497;SDS011;20744;50.938;7.286;2023-02-08T02:34:40;20.77;;;9.98;;
34497;SDS011;20744;50.938;7.286;2023-02-08T02:37:15;15.50;;;8.88;;
34497;SDS011;20744;50.938;7.286;2023-02-08T02:39:48;16.70;;;8.40;;
34497;SDS011;20744;50.938;7.286;2023-02-08T02:42:20;16.42;;;8.52;;
34497;SDS011;20744;50.938;7.286;2023-02-08T02:45:08;17.08;;;9.15;;
34497;SDS011;20744;50.938;7.286;2023-02-08T02:47:42;19.00;;;8.77;;
34497;SDS011;20744;50.938;7.286;2023-02-08T02:50:15;14.57;;;8.15;;
34497;SDS011;20744;50.938;7.286;2023-02-08T02:52:47;15.80;;;8.25;;
34497;SDS011;20744;50.938;7.286;2023-02-08T02:55:17;17.10;;;9.15;;
34497;SDS011;20744;50.938;7.286;2023-02-08T02:57:46;18.08;;;8.77;;
34497;SDS011;20744;50.938;7.286;2023-02-08T03:00:18;16.10;;;9.00;;
34497;SDS011;20744;50.938;7.286;2023-02-08T03:02:48;17.20;;;8.35;;
34497;SDS011;20744;50.938;7.286;2023-02-08T03:05:16;15.43;;;8.90;;
34497;SDS011;20744;50.938;7.286;2023-02-08T03:10:32;17.42;;;8.68;;
34497;SDS011;20744;50.938;7.286;2023-02-08T03:13:05;15.77;;;8.60;;
34497;SDS011;20744;50.938;7.286;2023-02-08T03:15:38;15.98;;;8.07;;
34497;SDS011;20744;50.938;7.286;2023-02-08T03:18:11;17.88;;;8.98;;
34497;SDS011;20744;50.938;7.286;2023-02-08T03:23:08;14.23;;;7.68;;
34497;SDS011;20744;50.938;7.286;2023-02-08T03:25:43;15.63;;;8.30;;
34497;SDS011;20744;50.938;7.286;2023-02-08T03:28:17;15.07;;;8.20;;
34497;SDS011;20744;50.938;7.286;2023-02-08T03:30:48;14.63;;;8.10;;
34497;SDS011;20744;50.938;7.286;2023-02-08T03:33:20;15.23;;;8.05;;
34497;SDS011;20744;50.938;7.286;2023-02-08T03:35:49;15.30;;;8.32;;
34497;SDS011;20744;50.938;7.286;2023-02-08T03:38:22;16.10;;;8.38;;
34497;SDS011;20744;50.938;7.286;2023-02-08T03:40:51;15.00;;;7.70;;
34497;SDS011;20744;50.938;7.286;2023-02-08T03:43:20;14.15;;;7.45;;
34497;SDS011;20744;50.938;7.286;2023-02-08T03:45:49;14.68;;;7.60;;
34497;SDS011;20744;50.938;7.286;2023-02-08T03:48:17;14.75;;;7.68;;
34497;SDS011;20744;50.938;7.286;2023-02-08T03:50:48;13.15;;;7.38;;
34497;SDS011;20744;50.938;7.286;2023-02-08T03:53:18;12.23;;;7.22;;
34497;SDS011;20744;50.938;7.286;2023-02-08T03:55:47;13.98;;;7.88;;
34497;SDS011;20744;50.938;7.286;2023-02-08T03:58:15;12.43;;;7.97;;
34497;SDS011;20744;50.938;7.286;2023-02-08T04:00:45;15.02;;;7.88;;
34497;SDS011;20744;50.938;7.286;2023-02-08T04:03:16;12.90;;;6.88;;
34497;SDS011;20744;50.938;7.286;2023-02-08T04:05:44;14.77;;;7.47;;
34497;SDS011;20744;50.938;7.286;2023-02-08T04:08:13;12.82;;;6.82;;
34497;SDS011;20744;50.938;7.286;2023-02-08T04:10:40;13.82;;;6.82;;
34497;SDS011;20744;50.938;7.286;2023-02-08T04:13:07;16.55;;;7.60;;
34497;SDS011;20744;50.938;7.286;2023-02-08T04:15:35;12.77;;;7.07;;
34497;SDS011;20744;50.938;7.286;2023-02-08T04:18:02;16.13;;;7.10;;
34497;SDS011;20744;50.938;7.286;2023-02-08T04:20:29;12.27;;;7.00;;
34497;SDS011;20744;50.938;7.286;2023-02-08T04:22:57;12.80;;;7.18;;
34497;SDS011;20744;50.938;7.286;2023-02-08T04:25:28;12.27;;;7.10;;
34497;SDS011;20744;50.938;7.286;2023-02-08T04:27:55;12.25;;;6.97;;
34497;SDS011;20744;50.938;7.286;2023-02-08T04:30:22;12.77;;;6.68;;
34497;SDS011;20744;50.938;7.286;2023-02-08T04:32:49;14.50;;;7.47;;
34497;SDS011;20744;50.938;7.286;2023-02-08T04:35:16;16.15;;;9.13;;
34497;SDS011;20744;50.938;7.286;2023-02-08T04:37:44;18.80;;;10.20;;
34497;SDS011;20744;50.938;7.286;2023-02-08T04:40:11;14.98;;;8.73;;
34497;SDS011;20744;50.938;7.286;2023-02-08T04:42:40;20.73;;;12.23;;
34497;SDS011;20744;50.938;7.286;2023-02-08T04:45:07;17.38;;;11.23;;
34497;SDS011;20744;50.938;7.286;2023-02-08T04:47:35;13.68;;;8.85;;
34497;SDS011;20744;50.938;7.286;2023-02-08T04:50:02;16.02;;;7.63;;
34497;SDS011;20744;50.938;7.286;2023-02-08T04:52:30;13.30;;;7.82;;
34497;SDS011;20744;50.938;7.286;2023-02-08T04:54:57;18.38;;;8.18;;
34497;SDS011;20744;50.938;7.286;2023-02-08T04:57:24;14.25;;;8.18;;
34497;SDS011;20744;50.938;7.286;2023-02-08T04:59:53;12.38;;;7.30;;
34497;SDS011;20744;50.938;7.286;2023-02-08T05:02:20;13.10;;;7.03;;
34497;SDS011;20744;50.938;7.286;2023-02-08T05:04:47;11.48;;;7.30;;
34497;SDS011;20744;50.938;7.286;2023-02-08T05:07:14;14.85;;;7.95;;
34497;SDS011;20744;50.938;7.286;2023-02-08T05:09:42;16.45;;;8.00;;
34497;SDS011;20744;50.938;7.286;2023-02-08T05:12:09;14.55;;;7.43;;
34497;SDS011;20744;50.938;7.286;2023-02-08T05:14:36;20.40;;;8.05;;
34497;SDS011;20744;50.938;7.286;2023-02-08T05:17:05;19.42;;;9.80;;
34497;SDS011;20744;50.938;7.286;2023-02-08T05:19:32;41.97;;;21.42;;
34497;SDS011;20744;50.938;7.286;2023-02-08T05:21:59;43.03;;;22.08;;
34497;SDS011;20744;50.938;7.286;2023-02-08T05:24:27;45.53;;;20.98;;
34497;SDS011;20744;50.938;7.286;2023-02-08T05:26:54;37.85;;;16.73;;
34497;SDS011;20744;50.938;7.286;2023-02-08T05:29:21;37.58;;;16.45;;
34497;SDS011;20744;50.938;7.286;2023-02-08T05:31:48;39.05;;;16.58;;
34497;SDS011;20744;50.938;7.286;2023-02-08T05:34:17;32.47;;;15.07;;
34497;SDS011;20744;50.938;7.286;2023-02-08T05:36:44;32.13;;;12.60;;
34497;SDS011;20744;50.938;7.286;2023-02-08T05:39:12;18.35;;;9.18;;
34497;SDS011;20744;50.938;7.286;2023-02-08T05:41:39;18.25;;;8.48;;
34497;SDS011;20744;50.938;7.286;2023-02-08T05:44:06;16.02;;;7.53;;
34497;SDS011;20744;50.938;7.286;2023-02-08T05:46:33;12.65;;;7.07;;
34497;SDS011;20744;50.938;7.286;2023-02-08T05:49:00;13.10;;;7.55;;
34497;SDS011;20744;50.938;7.286;2023-02-08T05:51:29;13.23;;;7.70;;
34497;SDS011;20744;50.938;7.286;2023-02-08T05:53:56;15.65;;;8.38;;
34497;SDS011;20744;50.938;7.286;2023-02-08T05:56:24;15.13;;;8.80;;
34497;SDS011;20744;50.938;7.286;2023-02-08T05:58:51;15.43;;;8.43;;
34497;SDS011;20744;50.938;7.286;2023-02-08T06:01:19;20.63;;;9.48;;
34497;SDS011;20744;50.938;7.286;2023-02-08T06:03:46;15.93;;;8.32;;
34497;SDS011;20744;50.938;7.286;2023-02-08T06:06:14;18.45;;;8.65;;
34497;SDS011;20744;50.938;7.286;2023-02-08T06:08:42;14.48;;;7.93;;
34497;SDS011;20744;50.938;7.286;2023-02-08T06:11:09;13.52;;;7.53;;
34497;SDS011;20744;50.938;7.286;2023-02-08T06:13:37;14.73;;;7.95;;
34497;SDS011;20744;50.938;7.286;2023-02-08T06:16:04;12.75;;;7.75;;
34497;SDS011;20744;50.938;7.286;2023-02-08T06:18:32;13.70;;;8.00;;
34497;SDS011;20744;50.938;7.286;2023-02-08T06:20:59;16.92;;;7.75;;
34497;SDS011;20744;50.938;7.286;2023-02-08T06:23:26;15.88;;;7.18;;
34497;SDS011;20744;50.938;7.286;2023-02-08T06:25:55;17.05;;;7.35;;
34497;SDS011;20744;50.938;7.286;2023-02-08T06:28:22;14.10;;;6.95;;
34497;SDS011;20744;50.938;7.286;2023-02-08T06:30:49;17.02;;;7.90;;
34497;SDS011;20744;50.938;7.286;2023-02-08T06:33:17;11.82;;;6.78;;
34497;SDS011;20744;50.938;7.286;2023-02-08T06:35:44;11.88;;;6.57;;
34497;SDS011;20744;50.938;7.286;2023-02-08T06:38:12;15.57;;;6.70;;
34497;SDS011;20744;50.938;7.286;2023-02-08T06:40:39;12.82;;;6.88;;
34497;SDS011;20744;50.938;7.286;2023-02-08T06:43:08;14.68;;;7.22;;
34497;SDS011;20744;50.938;7.286;2023-02-08T06:45:35;15.40;;;6.88;;
34497;SDS011;20744;50.938;7.286;2023-02-08T06:48:02;12.35;;;6.90;;
34497;SDS011;20744;50.938;7.286;2023-02-08T06:50:30;16.60;;;6.50;;
34497;SDS011;20744;50.938;7.286;2023-02-08T06:52:57;11.27;;;6.80;;
34497;SDS011;20744;50.938;7.286;2023-02-08T06:55:24;18.10;;;7.13;;
34497;SDS011;20744;50.938;7.286;2023-02-08T06:57:52;17.48;;;7.32;;
34497;SDS011;20744;50.938;7.286;2023-02-08T07:00:21;15.85;;;6.80;;
34497;SDS011;20744;50.938;7.286;2023-02-08T07:02:48;14.98;;;7.70;;
34497;SDS011;20744;50.938;7.286;2023-02-08T07:05:16;13.90;;;7.63;;
34497;SDS011;20744;50.938;7.286;2023-02-08T07:07:43;15.55;;;6.80;;
34497;SDS011;20744;50.938;7.286;2023-02-08T07:10:12;12.80;;;7.50;;
34497;SDS011;20744;50.938;7.286;2023-02-08T07:12:39;15.38;;;7.25;;
34497;SDS011;20744;50.938;7.286;2023-02-08T07:15:07;13.52;;;7.05;;
34497;SDS011;20744;50.938;7.286;2023-02-08T07:17:38;14.30;;;7.43;;
34497;SDS011;20744;50.938;7.286;2023-02-08T07:20:06;14.75;;;7.07;;
34497;SDS011;20744;50.938;7.286;2023-02-08T07:22:35;15.20;;;8.07;;
34497;SDS011;20744;50.938;7.286;2023-02-08T07:25:02;14.85;;;7.93;;
34497;SDS011;20744;50.938;7.286;2023-02-08T07:27:30;15.00;;;8.27;;
34497;SDS011;20744;50.938;7.286;2023-02-08T07:29:57;17.83;;;7.00;;
34497;SDS011;20744;50.938;7.286;2023-02-08T07:32:24;13.13;;;7.10;;
34497;SDS011;20744;50.938;7.286;2023-02-08T07:34:53;14.07;;;7.18;;
34497;SDS011;20744;50.938;7.286;2023-02-08T07:37:20;14.98;;;6.93;;
34497;SDS011;20744;50.938;7.286;2023-02-08T07:39:47;19.30;;;7.03;;
34497;SDS011;20744;50.938;7.286;2023-02-08T07:42:14;14.73;;;6.95;;
34497;SDS011;20744;50.938;7.286;2023-02-08T07:44:42;12.45;;;6.72;;
34497;SDS011;20744;50.938;7.286;2023-02-08T07:47:09;15.85;;;7.18;;
34497;SDS011;20744;50.938;7.286;2023-02-08T07:49:36;17.50;;;7.18;;
34497;SDS011;20744;50.938;7.286;2023-02-08T07:52:05;12.82;;;7.10;;
34497;SDS011;20744;50.938;7.286;2023-02-08T07:54:32;14.65;;;7.55;;
34497;SDS011;20744;50.938;7.286;2023-02-08T07:56:59;19.00;;;7.35;;
34497;SDS011;20744;50.938;7.286;2023-02-08T07:59:26;14.70;;;7.90;;
34497;SDS011;20744;50.938;7.286;2023-02-08T08:01:54;15.50;;;8.30;;
34497;SDS011;20744;50.938;7.286;2023-02-08T08:04:21;13.95;;;7.38;;
34497;SDS011;20744;50.938;7.286;2023-02-08T08:06:48;15.38;;;7.30;;
34497;SDS011;20744;50.938;7.286;2023-02-08T08:09:17;13.40;;;6.88;;
34497;SDS011;20744;50.938;7.286;2023-02-08T08:11:44;16.45;;;7.78;;
34497;SDS011;20744;50.938;7.286;2023-02-08T08:14:11;12.38;;;6.95;;
34497;SDS011;20744;50.938;7.286;2023-02-08T08:16:39;15.27;;;7.47;;
34497;SDS011;20744;50.938;7.286;2023-02-08T08:19:07;17.45;;;7.35;;
34497;SDS011;20744;50.938;7.286;2023-02-08T08:21:35;16.13;;;7.07;;
34497;SDS011;20744;50.938;7.286;2023-02-08T08:24:02;15.52;;;7.07;;
34497;SDS011;20744;50.938;7.286;2023-02-08T08:26:31;12.60;;;6.90;;
34497;SDS011;20744;50.938;7.286;2023-02-08T08:28:59;15.85;;;7.47;;
34497;SDS011;20744;50.938;7.286;2023-02-08T08:31:27;17.23;;;7.25;;
34497;SDS011;20744;50.938;7.286;2023-02-08T08:33:55;12.30;;;6.80;;
34497;SDS011;20744;50.938;7.286;2023-02-08T08:36:22;15.75;;;6.88;;
34497;SDS011;20744;50.938;7.286;2023-02-08T08:38:50;13.25;;;6.60;;
34497;SDS011;20744;50.938;7.286;2023-02-08T08:41:17;15.45;;;6.43;;
34497;SDS011;20744;50.938;7.286;2023-02-08T08:43:47;12.80;;;6.95;;
34497;SDS011;20744;50.938;7.286;2023-02-08T08:46:15;14.85;;;7.30;;
34497;SDS011;20744;50.938;7.286;2023-02-08T08:48:42;17.92;;;7.78;;
34497;SDS011;20744;50.938;7.286;2023-02-08T08:51:09;14.50;;;7.03;;
34497;SDS011;20744;50.938;7.286;2023-02-08T08:53:37;14.48;;;6.95;;
34497;SDS011;20744;50.938;7.286;2023-02-08T08:56:04;19.30;;;8.02;;
34497;SDS011;20744;50.938;7.286;2023-02-08T08:58:31;17.63;;;7.00;;
34497;SDS011;20744;50.938;7.286;2023-02-08T09:01:03;15.95;;;6.45;;
34497;SDS011;20744;50.938;7.286;2023-02-08T09:03:31;16.10;;;6.90;;
34497;SDS011;20744;50.938;7.286;2023-02-08T09:05:58;13.15;;;6.72;;
34497;SDS011;20744;50.938;7.286;2023-02-08T09:08:25;14.38;;;6.15;;
34497;SDS011;20744;50.938;7.286;2023-02-08T09:10:52;13.20;;;6.57;;
34497;SDS011;20744;50.938;7.286;2023-02-08T09:13:20;18.73;;;6.75;;
34497;SDS011;20744;50.938;7.286;2023-02-08T09:15:47;11.80;;;5.82;;
34497;SDS011;20744;50.938;7.286;2023-02-08T09:18:16;14.70;;;6.35;;
34497;SDS011;20744;50.938;7.286;2023-02-08T09:20:43;10.48;;;6.05;;
34497;SDS011;20744;50.938;7.286;2023-02-08T09:23:10;10.32;;;6.00;;
34497;SDS011;20744;50.938;7.286;2023-02-08T09:25:39;13.65;;;5.65;;
34497;SDS011;20744;50.938;7.286;2023-02-08T09:28:06;14.35;;;6.30;;
34497;SDS011;20744;50.938;7.286;2023-02-08T09:30:33;12.02;;;5.10;;
34497;SDS011;20744;50.938;7.286;2023-02-08T09:33:01;13.23;;;6.13;;
34497;SDS011;20744;50.938;7.286;2023-02-08T09:35:29;11.65;;;6.10;;
34497;SDS011;20744;50.938;7.286;2023-02-08T09:37:56;12.77;;;6.03;;
34497;SDS011;20744;50.938;7.286;2023-02-08T09:40:27;11.25;;;5.35;;
34497;SDS011;20744;50.938;7.286;2023-02-08T09:42:59;11.30;;;5.75;;
34497;SDS011;20744;50.938;7.286;2023-02-08T09:45:32;12.13;;;5.28;;
34497;SDS011;20744;50.938;7.286;2023-02-08T09:48:03;9.25;;;4.93;;
34497;SDS011;20744;50.938;7.286;2023-02-08T09:50:34;10.13;;;5.28;;
34497;SDS011;20744;50.938;7.286;2023-02-08T09:53:05;10.88;;;5.13;;
34497;SDS011;20744;50.938;7.286;2023-02-08T09:55:34;12.93;;;5.85;;
34497;SDS011;20744;50.938;7.286;2023-02-08T09:58:03;12.30;;;6.15;;
34497;SDS011;20744;50.938;7.286;2023-02-08T10:00:34;10.98;;;5.15;;
34497;SDS011;20744;50.938;7.286;2023-02-08T10:03:02;6.63;;;3.97;;
34497;SDS011;20744;50.938;7.286;2023-02-08T10:05:31;12.68;;;4.43;;
34497;SDS011;20744;50.938;7.286;2023-02-08T10:08:01;11.45;;;4.82;;
34497;SDS011;20744;50.938;7.286;2023-02-08T10:10:32;7.35;;;3.92;;
34497;SDS011;20744;50.938;7.286;2023-02-08T10:15:32;7.85;;;3.90;;
34497;SDS011;20744;50.938;7.286;2023-02-08T10:18:08;9.38;;;4.57;;
34497;SDS011;20744;50.938;7.286;2023-02-08T10:20:42;12.23;;;3.97;;
34497;SDS011;20744;50.938;7.286;2023-02-08T10:23:16;7.55;;;3.70;;
34497;SDS011;20744;50.938;7.286;2023-02-08T10:26:00;6.55;;;3.65;;
34497;SDS011;20744;50.938;7.286;2023-02-08T10:28:33;8.80;;;4.07;;
34497;SDS011;20744;50.938;7.286;2023-02-08T10:31:06;4.60;;;2.90;;
34497;SDS011;20744;50.938;7.286;2023-02-08T10:33:36;5.53;;;3.35;;
34497;SDS011;20744;50.938;7.286;2023-02-08T10:36:08;8.85;;;4.13;;
34497;SDS011;20744;50.938;7.286;2023-02-08T10:38:39;7.45;;;3.80;;
34497;SDS011;20744;50.938;7.286;2023-02-08T10:41:07;5.68;;;3.33;;
34497;SDS011;20744;50.938;7.286;2023-02-08T10:43:37;6.10;;;3.35;;
34497;SDS011;20744;50.938;7.286;2023-02-08T10:46:07;6.90;;;3.53;;
34497;SDS011;20744;50.938;7.286;2023-02-08T10:48:40;5.28;;;3.13;;
34497;SDS011;20744;50.938;7.286;2023-02-08T10:51:09;6.68;;;3.67;;
34497;SDS011;20744;50.938;7.286;2023-02-08T10:53:39;5.35;;;2.90;;
34497;SDS011;20744;50.938;7.286;2023-02-08T10:56:06;5.47;;;3.30;;
34497;SDS011;20744;50.938;7.286;2023-02-08T10:58:41;4.88;;;3.10;;
34497;SDS011;20744;50.938;7.286;2023-02-08T11:01:08;6.78;;;3.10;;
34497;SDS011;20744;50.938;7.286;2023-02-08T11:03:35;5.70;;;3.10;;
34497;SDS011;20744;50.938;7.286;2023-02-08T11:06:03;5.95;;;3.30;;
34497;SDS011;20744;50.938;7.286;2023-02-08T11:08:31;5.57;;;3.10;;
34497;SDS011;20744;50.938;7.286;2023-02-08T11:11:02;4.50;;;2.83;;
34497;SDS011;20744;50.938;7.286;2023-02-08T11:13:32;5.03;;;3.03;;
34497;SDS011;20744;50.938;7.286;2023-02-08T11:16:00;6.60;;;3.42;;
34497;SDS011;20744;50.938;7.286;2023-02-08T11:18:29;6.13;;;3.20;;
34497;SDS011;20744;50.938;7.286;2023-02-08T11:20:58;5.55;;;3.13;;
34497;SDS011;20744;50.938;7.286;2023-02-08T11:23:26;7.45;;;3.10;;
34497;SDS011;20744;50.938;7.286;2023-02-08T11:25:54;6.80;;;3.42;;
34497;SDS011;20744;50.938;7.286;2023-02-08T11:28:24;4.60;;;2.45;;
34497;SDS011;20744;50.938;7.286;2023-02-08T11:30:56;6.80;;;3.42;;
34497;SDS011;20744;50.938;7.286;2023-02-08T11:33:23;4.93;;;3.10;;
34497;SDS011;20744;50.938;7.286;2023-02-08T11:35:59;5.72;;;3.00;;
34497;SDS011;20744;50.938;7.286;2023-02-08T11:38:27;6.63;;;3.20;;
34497;SDS011;20744;50.938;7.286;2023-02-08T11:40:55;5.97;;;3.45;;
34497;SDS011;20744;50.938;7.286;2023-02-08T11:43:25;5.93;;;3.53;;
34497;SDS011;20744;50.938;7.286;2023-02-08T11:45:53;4.75;;;2.70;;
34497;SDS011;20744;50.938;7.286;2023-02-08T11:48:22;6.35;;;3.38;;
34497;SDS011;20744;50.938;7.286;2023-02-08T11:50:53;4.80;;;2.90;;
34497;SDS011;20744;50.938;7.286;2023-02-08T11:53:22;5.68;;;3.40;;
34497;SDS011;20744;50.938;7.286;2023-02-08T11:56:00;5.28;;;3.20;;
34497;SDS011;20744;50.938;7.286;2023-02-08T11:58:29;4.95;;;3.45;;
34497;SDS011;20744;50.938;7.286;2023-02-08T12:00:57;7.03;;;3.70;;
34497;SDS011;20744;50.938;7.286;2023-02-08T12:03:26;6.80;;;3.47;;
34497;SDS011;20744;50.938;7.286;2023-02-08T12:05:57;7.20;;;3.20;;
34497;SDS011;20744;50.938;7.286;2023-02-08T12:08:30;5.95;;;3.20;;
34497;SDS011;20744;50.938;7.286;2023-02-08T12:11:02;4.55;;;2.70;;
34497;SDS011;20744;50.938;7.286;2023-02-08T12:13:42;5.30;;;3.30;;
34497;SDS011;20744;50.938;7.286;2023-02-08T12:16:17;6.22;;;3.10;;
34497;SDS011;20744;50.938;7.286;2023-02-08T12:19:00;5.18;;;3.13;;
34497;SDS011;20744;50.938;7.286;2023-02-08T12:21:30;5.53;;;3.03;;
34497;SDS011;20744;50.938;7.286;2023-02-08T12:24:00;4.28;;;2.78;;
34497;SDS011;20744;50.938;7.286;2023-02-08T12:29:21;5.55;;;3.05;;
34497;SDS011;20744;50.938;7.286;2023-02-08T12:31:56;5.05;;;2.85;;
34497;SDS011;20744;50.938;7.286;2023-02-08T12:34:28;5.63;;;2.90;;
34497;SDS011;20744;50.938;7.286;2023-02-08T12:37:02;4.88;;;2.78;;
34497;SDS011;20744;50.938;7.286;2023-02-08T12:39:51;4.65;;;2.80;;
34497;SDS011;20744;50.938;7.286;2023-02-08T12:42:43;4.70;;;3.00;;
34497;SDS011;20744;50.938;7.286;2023-02-08T12:45:31;4.90;;;3.08;;
34497;SDS011;20744;50.938;7.286;2023-02-08T12:48:04;5.25;;;2.90;;
34497;SDS011;20744;50.938;7.286;2023-02-08T12:50:37;4.65;;;2.53;;
34497;SDS011;20744;50.938;7.286;2023-02-08T12:53:09;6.15;;;3.80;;
34497;SDS011;20744;50.938;7.286;2023-02-08T12:55:39;4.75;;;3.00;;
34497;SDS011;20744;50.938;7.286;2023-02-08T12:58:15;3.90;;;2.67;;
34497;SDS011;20744;50.938;7.286;2023-02-08T13:00:48;6.10;;;2.50;;
34497;SDS011;20744;50.938;7.286;2023-02-08T13:03:18;5.97;;;2.83;;
34497;SDS011;20744;50.938;7.286;2023-02-08T13:05:47;4.63;;;2.70;;
34497;SDS011;20744;50.938;7.286;2023-02-08T13:08:22;5.13;;;2.75;;
34497;SDS011;20744;50.938;7.286;2023-02-08T13:10:51;4.18;;;2.45;;
34497;SDS011;20744;50.938;7.286;2023-02-08T13:13:23;5.55;;;2.50;;
34497;SDS011;20744;50.938;7.286;2023-02-08T13:15:55;3.92;;;2.40;;
34497;SDS011;20744;50.938;7.286;2023-02-08T13:18:24;4.82;;;2.42;;
34497;SDS011;20744;50.938;7.286;2023-02-08T13:20:54;3.95;;;2.00;;
34497;SDS011;20744;50.938;7.286;2023-02-08T13:23:23;2.88;;;2.05;;
34497;SDS011;20744;50.938;7.286;2023-02-08T13:25:52;5.07;;;1.90;;
34497;SDS011;20744;50.938;7.286;2023-02-08T13:28:21;3.80;;;1.90;;
34497;SDS011;20744;50.938;7.286;2023-02-08T13:30:57;4.45;;;2.10;;
34497;SDS011;20744;50.938;7.286;2023-02-08T13:33:28;5.15;;;2.00;;
34497;SDS011;20744;50.938;7.286;2023-02-08T13:35:56;5.45;;;2.08;;
34497;SDS011;20744;50.938;7.286;2023-02-08T13:38:24;2.78;;;1.70;;
34497;SDS011;20744;50.938;7.286;2023-02-08T13:41:03;4.95;;;1.90;;
34497;SDS011;20744;50.938;7.286;2023-02-08T13:43:34;3.05;;;1.98;;
34497;SDS011;20744;50.938;7.286;2023-02-08T13:46:03;3.58;;;1.90;;
34497;SDS011;20744;50.938;7.286;2023-02-08T13:48:39;3.65;;;1.88;;
34497;SDS011;20744;50.938;7.286;2023-02-08T13:51:12;3.95;;;2.00;;
34497;SDS011;20744;50.938;7.286;2023-02-08T13:54:08;3.35;;;1.95;;
34497;SDS011;20744;50.938;7.286;2023-02-08T13:56:37;3.58;;;2.00;;
34497;SDS011;20744;50.938;7.286;2023-02-08T13:59:22;3.28;;;2.00;;
34497;SDS011;20744;50.938;7.286;2023-02-08T14:04:37;3.17;;;1.80;;
34497;SDS011;20744;50.938;7.286;2023-02-08T14:07:10;3.88;;;2.00;;
34497;SDS011;20744;50.938;7.286;2023-02-08T14:09:53;4.13;;;2.20;;
34497;SDS011;20744;50.938;7.286;2023-02-08T14:12:28;5.07;;;1.73;;
34497;SDS011;20744;50.938;7.286;2023-02-08T14:15:13;3.67;;;1.75;;
34497;SDS011;20744;50.938;7.286;2023-02-08T14:17:49;3.58;;;1.88;;
34497;SDS011;20744;50.938;7.286;2023-02-08T14:20:20;4.10;;;1.95;;
34497;SDS011;20744;50.938;7.286;2023-02-08T14:22:51;3.45;;;1.90;;
34497;SDS011;20744;50.938;7.286;2023-02-08T14:25:20;4.63;;;1.98;;
34497;SDS011;20744;50.938;7.286;2023-02-08T14:27:48;3.30;;;1.95;;
34497;SDS011;20744;50.938;7.286;2023-02-08T14:30:21;3.70;;;1.80;;
34497;SDS011;20744;50.938;7.286;2023-02-08T14:32:49;2.55;;;1.63;;
34497;SDS011;20744;50.938;7.286;2023-02-08T14:35:18;3.22;;;1.92;;
34497;SDS011;20744;50.938;7.286;2023-02-08T14:37:48;3.55;;;1.63;;
34497;SDS011;20744;50.938;7.286;2023-02-08T14:45:49;3.15;;;1.77;;
34497;SDS011;20744;50.938;7.286;2023-02-08T14:48:18;2.83;;;1.80;;
34497;SDS011;20744;50.938;7.286;2023-02-08T14:53:43;3.75;;;1.92;;
34497;SDS011;20744;50.938;7.286;2023-02-08T14:56:17;4.30;;;1.80;;
34497;SDS011;20744;50.938;7.286;2023-02-08T14:58:45;3.15;;;1.70;;
34497;SDS011;20744;50.938;7.286;2023-02-08T15:01:16;4.93;;;1.80;;
34497;SDS011;20744;50.938;7.286;2023-02-08T15:03:44;3.65;;;1.83;;
34497;SDS011;20744;50.938;7.286;2023-02-08T15:06:22;3.65;;;1.90;;
34497;SDS011;20744;50.938;7.286;2023-02-08T15:08:55;3.25;;;1.55;;
34497;SDS011;20744;50.938;7.286;2023-02-08T15:11:24;4.35;;;1.40;;
34497;SDS011;20744;50.938;7.286;2023-02-08T15:13:52;4.00;;;1.73;;